createdAt,value
2019-04-03T00:01:34.065Z,20.87
2019-04-03T00:04:07.139Z,19.67
2019-04-03T00:06:39.710Z,22.43
2019-04-03T00:09:12.754Z,21.80
2019-04-03T00:11:47.090Z,21.83
2019-04-03T00:14:21.417Z,19.97
2019-04-03T00:16:54.129Z,21.13
2019-04-03T00:19:27.689Z,21.50
2019-04-03T00:22:01.548Z,23.70
2019-04-03T00:24:34.974Z,20.90
2019-04-03T00:27:07.486Z,19.42
2019-04-03T00:29:40.315Z,17.43
2019-04-03T00:32:13.305Z,18.40
2019-04-03T00:34:45.902Z,18.83
2019-04-03T00:37:21.530Z,21.37
2019-04-03T00:39:56.570Z,22.60
2019-04-03T00:42:29.149Z,22.10
2019-04-03T00:45:03.649Z,24.80
2019-04-03T00:47:36.236Z,25.42
2019-04-03T00:50:08.778Z,25.03
2019-04-03T00:52:42.919Z,24.90
2019-04-03T00:55:15.970Z,27.50
2019-04-03T00:57:49.551Z,28.03
2019-04-03T01:00:22.839Z,28.40
2019-04-03T01:02:58.140Z,26.93
2019-04-03T01:05:31.322Z,25.17
2019-04-03T01:08:04.788Z,21.17
2019-04-03T01:10:37.293Z,20.33
2019-04-03T01:13:09.899Z,16.33
2019-04-03T01:15:43.675Z,15.63
2019-04-03T01:18:16.238Z,14.37
2019-04-03T01:20:48.822Z,15.90
2019-04-03T01:23:21.656Z,13.77
2019-04-03T01:25:54.230Z,15.23
2019-04-03T01:28:26.766Z,12.40
2019-04-03T01:30:59.631Z,13.57
2019-04-03T01:33:32.352Z,11.67
2019-04-03T01:36:05.020Z,10.00
2019-04-03T01:38:38.950Z,9.63
2019-04-03T01:41:11.791Z,10.60
2019-04-03T01:43:44.971Z,10.10
2019-04-03T01:46:17.715Z,8.93
2019-04-03T01:48:53.944Z,9.10
2019-04-03T01:51:27.745Z,7.90
2019-04-03T01:54:06.141Z,9.57
2019-04-03T01:56:39.094Z,8.15
2019-04-03T01:59:13.095Z,8.60
2019-04-03T02:01:49.152Z,8.75
2019-04-03T02:04:21.772Z,8.65
2019-04-03T02:06:54.720Z,11.83
2019-04-03T02:09:27.278Z,8.90
2019-04-03T02:11:59.908Z,9.87
2019-04-03T02:14:33.938Z,9.83
2019-04-03T02:17:06.406Z,10.20
2019-04-03T02:19:39.005Z,10.67
2019-04-03T02:22:11.825Z,7.90
2019-04-03T02:24:44.473Z,8.27
2019-04-03T02:27:16.943Z,6.27
2019-04-03T02:29:54.243Z,6.27
2019-04-03T02:32:27.078Z,5.93
2019-04-03T02:34:59.658Z,5.77
2019-04-03T02:37:32.375Z,6.47
2019-04-03T02:40:06.539Z,6.93
2019-04-03T02:42:41.237Z,7.17
2019-04-03T02:45:16.901Z,8.60
2019-04-03T02:47:49.463Z,7.50
2019-04-03T02:50:26.502Z,6.23
2019-04-03T02:52:59.555Z,6.87
2019-04-03T02:55:32.301Z,6.20
2019-04-03T02:58:06.984Z,6.70
2019-04-03T03:00:39.515Z,6.90
2019-04-03T03:03:12.037Z,6.00
2019-04-03T03:05:45.352Z,6.17
2019-04-03T03:08:18.225Z,6.70
2019-04-03T03:10:52.931Z,5.67
2019-04-03T03:13:27.120Z,5.50
2019-04-03T03:16:00.319Z,5.20
2019-04-03T03:18:33.386Z,6.13
2019-04-03T03:21:07.348Z,6.43
2019-04-03T03:23:40.587Z,5.37
2019-04-03T03:26:13.404Z,5.10
2019-04-03T03:28:47.923Z,5.20
2019-04-03T03:31:44.432Z,6.47
2019-04-03T03:34:51.492Z,4.70
2019-04-03T03:37:28.619Z,5.00
2019-04-03T03:40:02.259Z,5.78
2019-04-03T03:42:35.920Z,5.20
2019-04-03T03:45:10.521Z,4.93
2019-04-03T03:47:45.143Z,5.13
2019-04-03T03:50:26.261Z,4.37
2019-04-03T03:52:59.643Z,4.87
2019-04-03T03:55:34.368Z,4.95
2019-04-03T03:58:11.058Z,5.57
2019-04-03T04:00:51.173Z,5.00
2019-04-03T04:03:24.876Z,5.10
2019-04-03T04:05:58.081Z,4.95
2019-04-03T04:08:31.284Z,4.70
2019-04-03T04:11:03.846Z,4.60
2019-04-03T04:13:37.869Z,5.23
2019-04-03T04:16:10.605Z,5.47
2019-04-03T04:18:43.402Z,4.30
2019-04-03T04:21:18.069Z,8.00
2019-04-03T04:23:50.985Z,7.67
2019-04-03T04:26:23.786Z,5.27
2019-04-03T04:28:56.893Z,5.10
2019-04-03T04:31:29.926Z,4.53
2019-04-03T04:34:04.157Z,4.90
2019-04-03T04:36:37.743Z,5.20
2019-04-03T04:39:12.424Z,6.83
2019-04-03T04:41:46.960Z,5.68
2019-04-03T04:44:20.327Z,7.10
2019-04-03T04:46:52.980Z,6.28
2019-04-03T04:49:26.646Z,6.57
2019-04-03T04:52:01.677Z,6.17
2019-04-03T04:54:35.218Z,6.67
2019-04-03T04:57:09.518Z,7.15
2019-04-03T04:59:44.319Z,7.53
2019-04-03T05:02:19.743Z,6.73
2019-04-03T05:04:53.907Z,7.50
2019-04-03T05:07:30.826Z,7.40
2019-04-03T05:10:05.885Z,8.80
2019-04-03T05:12:42.652Z,8.00
2019-04-03T05:15:19.557Z,8.90
2019-04-03T05:17:54.208Z,8.07
2019-04-03T05:20:26.869Z,10.33
2019-04-03T05:23:01.159Z,10.77
2019-04-03T05:25:34.000Z,8.23
2019-04-03T05:28:06.670Z,9.40
2019-04-03T05:30:39.759Z,11.12
2019-04-03T05:33:13.073Z,11.33
2019-04-03T05:35:48.192Z,10.37
2019-04-03T05:38:22.500Z,8.73
2019-04-03T05:40:56.491Z,9.87
2019-04-03T05:43:31.095Z,10.67
2019-04-03T05:46:06.357Z,10.20
2019-04-03T05:48:39.010Z,10.68
2019-04-03T05:51:11.929Z,10.43
2019-04-03T05:53:46.851Z,10.57
2019-04-03T05:56:19.610Z,17.50
2019-04-03T05:58:56.702Z,12.17
2019-04-03T06:01:30.892Z,13.00
2019-04-03T06:04:05.219Z,12.67
2019-04-03T06:06:39.376Z,10.77
2019-04-03T06:09:11.910Z,11.33
2019-04-03T06:11:44.941Z,9.10
2019-04-03T06:14:19.057Z,10.37
2019-04-03T06:16:52.131Z,16.10
2019-04-03T06:19:25.930Z,11.63
2019-04-03T06:21:58.517Z,10.33
2019-04-03T06:24:30.988Z,11.70
2019-04-03T06:27:04.997Z,10.57
2019-04-03T06:29:38.156Z,12.70
2019-04-03T06:32:12.721Z,10.40
2019-04-03T06:34:46.586Z,12.50
2019-04-03T06:37:20.166Z,12.70
2019-04-03T06:39:54.176Z,10.70
2019-04-03T06:42:28.594Z,15.03
2019-04-03T06:45:03.343Z,13.47
2019-04-03T06:47:36.040Z,11.63
2019-04-03T06:50:10.357Z,10.03
2019-04-03T06:52:45.315Z,9.10
2019-04-03T06:55:20.584Z,10.60
2019-04-03T06:57:53.622Z,9.38
2019-04-03T07:00:26.776Z,9.30
2019-04-03T07:03:01.500Z,10.27
2019-04-03T07:05:37.417Z,8.43
2019-04-03T07:08:10.012Z,7.93
2019-04-03T07:10:54.218Z,6.87
2019-04-03T07:13:29.457Z,8.37
2019-04-03T07:16:06.325Z,8.67
2019-04-03T07:18:40.404Z,11.18
2019-04-03T07:21:14.437Z,12.83
2019-04-03T07:23:50.386Z,9.67
2019-04-03T07:26:23.549Z,10.63
2019-04-03T07:28:57.779Z,10.80
2019-04-03T07:31:33.859Z,11.00
2019-04-03T07:34:11.904Z,9.77
2019-04-03T07:36:46.340Z,11.33
2019-04-03T07:39:28.667Z,9.70
2019-04-03T07:42:01.206Z,11.60
2019-04-03T07:44:34.185Z,12.13
2019-04-03T07:47:06.810Z,11.13
2019-04-03T07:49:40.700Z,12.83
2019-04-03T07:52:16.793Z,14.93
2019-04-03T07:54:51.876Z,11.30
2019-04-03T07:57:28.110Z,11.93
2019-04-03T08:00:06.195Z,12.80
2019-04-03T08:02:39.761Z,13.07
2019-04-03T08:05:15.620Z,12.30
2019-04-03T08:07:48.676Z,13.57
2019-04-03T08:10:22.338Z,12.47
2019-04-03T08:13:05.030Z,14.27
2019-04-03T08:15:39.067Z,13.13
2019-04-03T08:18:11.977Z,11.40
2019-04-03T08:20:48.990Z,11.90
2019-04-03T08:23:22.346Z,14.33
2019-04-03T08:25:58.117Z,14.37
2019-04-03T08:28:31.059Z,15.97
2019-04-03T08:31:03.807Z,16.53
2019-04-03T08:33:38.081Z,13.90
2019-04-03T08:36:22.536Z,17.83
2019-04-03T08:38:58.874Z,15.63
2019-04-03T08:41:36.447Z,14.97
2019-04-03T08:44:11.106Z,11.43
2019-04-03T08:46:47.511Z,13.07
2019-04-03T08:49:21.358Z,11.73
2019-04-03T08:51:54.850Z,10.13
2019-04-03T08:54:27.315Z,8.60
2019-04-03T08:57:02.447Z,7.73
2019-04-03T08:59:35.143Z,7.37
2019-04-03T09:02:12.738Z,6.70
2019-04-03T09:04:48.786Z,8.13
2019-04-03T09:07:24.926Z,6.27
2019-04-03T09:10:07.812Z,7.17
2019-04-03T09:12:45.389Z,8.32
2019-04-03T09:15:20.542Z,6.90
2019-04-03T09:17:55.482Z,6.72
2019-04-03T09:20:29.191Z,6.97
2019-04-03T09:23:02.106Z,6.70
2019-04-03T09:25:35.047Z,5.47
2019-04-03T09:28:22.859Z,5.07
2019-04-03T09:30:57.056Z,4.37
2019-04-03T09:33:30.574Z,3.50
2019-04-03T09:36:04.418Z,5.20
2019-04-03T09:38:40.649Z,5.40
2019-04-03T09:41:14.301Z,5.03
2019-04-03T09:43:47.042Z,5.43
2019-04-03T09:46:19.762Z,7.87
2019-04-03T09:48:52.442Z,5.63
2019-04-03T09:51:25.249Z,6.83
2019-04-03T09:53:58.342Z,7.63
2019-04-03T09:56:31.861Z,7.30
2019-04-03T09:59:06.666Z,7.00
2019-04-03T10:01:42.255Z,7.10
2019-04-03T10:04:15.352Z,7.97
2019-04-03T10:06:47.973Z,6.43
2019-04-03T10:09:21.206Z,6.50
2019-04-03T10:11:55.799Z,6.00
2019-04-03T10:14:28.973Z,6.30
2019-04-03T10:17:01.515Z,6.30
2019-04-03T10:19:35.671Z,7.93
2019-04-03T10:22:11.893Z,8.15
2019-04-03T10:24:45.930Z,7.83
2019-04-03T10:27:19.114Z,7.03
2019-04-03T10:30:00.043Z,6.30
2019-04-03T10:32:45.094Z,5.80
2019-04-03T10:35:18.484Z,6.13
2019-04-03T10:37:52.159Z,5.97
2019-04-03T10:40:26.919Z,6.13
2019-04-03T10:43:02.825Z,5.27
2019-04-03T10:45:40.931Z,5.50
2019-04-03T10:48:17.140Z,5.30
2019-04-03T10:50:49.871Z,5.37
2019-04-03T10:53:25.775Z,8.90
2019-04-03T10:55:59.846Z,5.87
2019-04-03T10:58:34.519Z,6.43
2019-04-03T11:01:07.544Z,5.70
2019-04-03T11:03:40.153Z,4.77
2019-04-03T11:06:13.439Z,4.63
2019-04-03T11:08:47.755Z,5.03
2019-04-03T11:11:20.898Z,4.33
2019-04-03T11:13:55.499Z,9.03
2019-04-03T11:16:29.993Z,4.73
2019-04-03T11:19:06.767Z,4.43
2019-04-03T11:21:43.251Z,4.30
2019-04-03T11:24:19.210Z,4.30
2019-04-03T11:26:54.850Z,6.70
2019-04-03T11:29:28.266Z,4.20
2019-04-03T11:32:01.064Z,3.87
2019-04-03T11:34:36.290Z,4.30
2019-04-03T11:37:10.095Z,4.57
2019-04-03T11:39:45.645Z,5.47
2019-04-03T11:42:24.907Z,6.13
2019-04-03T11:45:03.502Z,5.03
2019-04-03T11:47:39.239Z,4.80
2019-04-03T11:50:14.416Z,5.27
2019-04-03T11:52:47.586Z,5.77
2019-04-03T11:55:21.093Z,5.43
2019-04-03T11:57:55.183Z,6.63
2019-04-03T12:00:32.137Z,6.40
2019-04-03T12:03:06.643Z,4.80
2019-04-03T12:05:41.634Z,5.73
2019-04-03T12:08:15.510Z,5.43
2019-04-03T12:10:48.805Z,6.67
2019-04-03T12:13:29.913Z,4.73
2019-04-03T12:16:04.390Z,4.10
2019-04-03T12:18:39.742Z,4.77
2019-04-03T12:21:14.370Z,4.83
2019-04-03T12:23:58.524Z,5.33
2019-04-03T12:26:55.916Z,4.77
2019-04-03T12:29:34.680Z,5.60
2019-04-03T12:32:10.315Z,4.73
2019-04-03T12:34:43.124Z,4.50
2019-04-03T12:37:19.593Z,4.87
2019-04-03T12:39:56.236Z,5.13
2019-04-03T12:42:33.138Z,6.03
2019-04-03T12:45:09.485Z,6.57
2019-04-03T12:47:50.965Z,5.10
2019-04-03T12:50:29.252Z,5.00
2019-04-03T12:53:03.409Z,5.00
2019-04-03T12:55:36.342Z,4.97
2019-04-03T12:58:17.203Z,4.60
2019-04-03T13:00:50.480Z,4.73
2019-04-03T13:03:25.685Z,6.20
2019-04-03T13:05:59.633Z,5.10
2019-04-03T13:08:32.990Z,4.60
2019-04-03T13:11:06.497Z,4.70
2019-04-03T13:13:41.295Z,4.73
2019-04-03T13:16:15.826Z,4.87
2019-04-03T13:18:49.518Z,3.93
2019-04-03T13:21:22.939Z,3.97
2019-04-03T13:23:59.874Z,5.00
2019-04-03T13:26:34.166Z,5.50
2019-04-03T13:29:08.927Z,4.30
2019-04-03T13:31:50.601Z,4.07
2019-04-03T13:34:36.196Z,3.87
2019-04-03T13:37:09.998Z,4.37
2019-04-03T13:39:45.149Z,4.10
2019-04-03T13:42:17.988Z,3.85
2019-04-03T13:44:53.100Z,4.20
2019-04-03T13:47:26.263Z,3.60
2019-04-03T13:50:03.315Z,3.60
2019-04-03T13:52:43.052Z,4.50
2019-04-03T13:55:23.508Z,4.13
2019-04-03T13:57:56.895Z,4.07
2019-04-03T14:00:33.825Z,3.90
2019-04-03T14:03:13.152Z,15.80
2019-04-03T14:05:49.453Z,17.57
2019-04-03T14:08:22.231Z,9.33
2019-04-03T14:11:00.390Z,4.70
2019-04-03T14:13:42.577Z,5.77
2019-04-03T14:16:21.741Z,4.00
2019-04-03T14:18:57.839Z,6.53
2019-04-03T14:21:30.714Z,3.93
2019-04-03T14:24:03.780Z,8.07
2019-04-03T14:26:39.294Z,5.83
2019-04-03T14:29:13.744Z,5.13
2019-04-03T14:31:48.554Z,3.90
2019-04-03T14:34:24.577Z,5.63
2019-04-03T14:36:58.336Z,5.80
2019-04-03T14:39:39.252Z,3.70
2019-04-03T14:42:15.218Z,3.83
2019-04-03T14:44:51.280Z,4.17
2019-04-03T14:47:27.917Z,3.77
2019-04-03T14:50:05.382Z,3.50
2019-04-03T14:52:44.128Z,5.40
2019-04-03T14:55:24.350Z,3.93
2019-04-03T14:57:57.682Z,4.10
2019-04-03T15:00:33.225Z,3.40
2019-04-03T15:03:13.849Z,3.30
2019-04-03T15:05:47.024Z,3.73
2019-04-03T15:08:22.835Z,3.00
2019-04-03T15:10:57.018Z,3.50
2019-04-03T15:13:30.796Z,3.60
2019-04-03T15:16:06.296Z,3.30
2019-04-03T15:18:54.686Z,5.37
2019-04-03T15:21:32.338Z,3.03
2019-04-03T15:24:11.383Z,5.60
2019-04-03T15:26:46.999Z,3.30
2019-04-03T15:29:19.737Z,3.77
2019-04-03T15:31:53.938Z,4.37
2019-04-03T15:34:30.188Z,3.20
2019-04-03T15:37:04.251Z,3.43
2019-04-03T15:39:41.748Z,2.87
2019-04-03T15:42:20.926Z,4.47
2019-04-03T15:45:00.987Z,5.93
2019-04-03T15:47:55.257Z,3.23
2019-04-03T15:50:33.400Z,4.77
2019-04-03T15:53:14.199Z,4.07
2019-04-03T15:55:48.037Z,3.27
2019-04-03T15:58:27.174Z,3.20
2019-04-03T16:01:09.253Z,3.33
2019-04-03T16:03:44.291Z,3.33
2019-04-03T16:06:26.640Z,4.10
2019-04-03T16:09:01.297Z,3.00
2019-04-03T16:11:38.081Z,5.10
2019-04-03T16:14:12.482Z,4.77
2019-04-03T16:16:48.418Z,4.03
2019-04-03T16:19:24.710Z,3.20
2019-04-03T16:21:59.106Z,2.97
2019-04-03T16:24:32.433Z,3.10
2019-04-03T16:27:07.323Z,3.20
2019-04-03T16:29:41.914Z,3.27
2019-04-03T16:32:15.420Z,3.70
2019-04-03T16:34:50.705Z,2.63
2019-04-03T16:37:23.489Z,3.97
2019-04-03T16:39:57.957Z,5.10
2019-04-03T16:42:33.714Z,4.15
2019-04-03T16:45:12.009Z,3.50
2019-04-03T16:47:50.475Z,3.10
2019-04-03T16:50:27.449Z,3.70
2019-04-03T16:53:01.803Z,5.17
2019-04-03T16:55:35.686Z,2.87
2019-04-03T16:58:15.767Z,3.10
2019-04-03T17:00:54.176Z,3.20
2019-04-03T17:03:31.754Z,4.73
2019-04-03T17:06:07.938Z,3.10
2019-04-03T17:08:45.341Z,5.00
2019-04-03T17:11:22.623Z,3.63
2019-04-03T17:13:57.452Z,3.78
2019-04-03T17:16:37.369Z,3.23
2019-04-03T17:19:12.307Z,3.53
2019-04-03T17:21:47.164Z,3.97
2019-04-03T17:24:43.639Z,3.47
2019-04-03T17:27:24.956Z,2.97
2019-04-03T17:29:58.761Z,2.80
2019-04-03T17:32:35.462Z,2.70
2019-04-03T17:35:09.939Z,2.60
2019-04-03T17:37:43.647Z,4.20
2019-04-03T17:40:18.787Z,3.30
2019-04-03T17:42:51.468Z,3.20
2019-04-03T17:45:24.746Z,3.57
2019-04-03T17:47:58.838Z,3.43
2019-04-03T17:50:31.648Z,2.93
2019-04-03T17:53:12.793Z,3.33
2019-04-03T17:55:46.012Z,3.93
2019-04-03T17:58:24.380Z,2.80
2019-04-03T18:00:59.014Z,4.05
2019-04-03T18:03:35.113Z,4.43
2019-04-03T18:06:08.915Z,3.97
2019-04-03T18:08:44.588Z,6.50
2019-04-03T18:11:18.138Z,3.90
2019-04-03T18:13:52.982Z,3.87
2019-04-03T18:16:30.394Z,3.50
2019-04-03T18:19:04.937Z,4.28
2019-04-03T18:21:39.498Z,5.37
2019-04-03T18:24:13.430Z,4.07
2019-04-03T18:26:47.927Z,4.20
2019-04-03T18:29:24.324Z,3.60
2019-04-03T18:31:59.069Z,3.90
2019-04-03T18:34:31.964Z,4.37
2019-04-03T18:37:18.125Z,4.00
2019-04-03T18:39:51.504Z,4.97
2019-04-03T18:42:24.468Z,6.83
2019-04-03T18:44:59.195Z,5.30
2019-04-03T18:47:41.121Z,4.57
2019-04-03T18:50:17.246Z,4.37
2019-04-03T18:52:52.812Z,4.83
2019-04-03T18:55:26.698Z,4.77
2019-04-03T18:57:59.377Z,5.30
2019-04-03T19:00:34.301Z,4.30
2019-04-03T19:03:11.207Z,4.10
2019-04-03T19:05:46.410Z,4.10
2019-04-03T19:08:19.136Z,4.00
2019-04-03T19:11:02.121Z,4.30
2019-04-03T19:13:36.691Z,7.00
2019-04-03T19:16:10.710Z,4.63
2019-04-03T19:18:46.665Z,4.70
2019-04-03T19:21:28.463Z,6.27
2019-04-03T19:24:03.908Z,5.10
2019-04-03T19:26:37.457Z,5.67
2019-04-03T19:29:10.318Z,5.57
2019-04-03T19:31:43.955Z,5.27
2019-04-03T19:34:19.897Z,6.10
2019-04-03T19:36:55.227Z,6.07
2019-04-03T19:39:29.163Z,6.30
2019-04-03T19:42:04.625Z,6.07
2019-04-03T19:44:41.583Z,7.00
2019-04-03T19:47:16.778Z,7.87
2019-04-03T19:50:00.866Z,6.87
2019-04-03T19:52:37.094Z,6.63
2019-04-03T19:55:12.121Z,7.53
2019-04-03T19:57:45.741Z,7.55
2019-04-03T20:00:27.563Z,7.40
2019-04-03T20:03:00.778Z,7.23
2019-04-03T20:05:34.516Z,6.90
2019-04-03T20:08:08.153Z,6.60
2019-04-03T20:10:40.926Z,6.97
2019-04-03T20:13:15.933Z,7.50
2019-04-03T20:15:48.569Z,7.83
2019-04-03T20:18:21.322Z,9.43
2019-04-03T20:20:59.446Z,7.70
2019-04-03T20:23:35.038Z,8.53
2019-04-03T20:26:12.517Z,8.70
2019-04-03T20:28:44.964Z,9.40
2019-04-03T20:31:17.694Z,8.93
2019-04-03T20:33:50.872Z,9.93
2019-04-03T20:36:23.909Z,10.10
2019-04-03T20:38:58.286Z,9.73
2019-04-03T20:41:34.654Z,9.27
2019-04-03T20:44:09.896Z,9.73
2019-04-03T20:46:42.599Z,10.55
2019-04-03T20:49:15.155Z,9.70
2019-04-03T20:51:48.819Z,10.97
2019-04-03T20:54:24.148Z,9.87
2019-04-03T20:57:01.952Z,10.80
2019-04-03T20:59:37.226Z,11.02
2019-04-03T21:02:10.766Z,9.90
2019-04-03T21:04:48.739Z,10.90
2019-04-03T21:07:25.699Z,10.60
2019-04-03T21:10:01.571Z,11.33
2019-04-03T21:12:36.441Z,11.33
2019-04-03T21:15:18.663Z,9.97
2019-04-03T21:17:52.950Z,10.07
2019-04-03T21:20:27.124Z,10.73
2019-04-03T21:23:03.640Z,11.27
2019-04-03T21:25:40.711Z,10.70
2019-04-03T21:28:13.787Z,10.10
2019-04-03T21:30:46.979Z,12.47
2019-04-03T21:33:19.979Z,12.60
2019-04-03T21:35:52.576Z,12.13
2019-04-03T21:38:25.738Z,11.60
2019-04-03T21:40:58.330Z,12.20
2019-04-03T21:43:30.938Z,11.67
2019-04-03T21:46:04.978Z,10.63
2019-04-03T21:48:37.748Z,11.30
2019-04-03T21:51:10.281Z,10.17
2019-04-03T21:53:43.656Z,10.33
2019-04-03T21:56:16.503Z,13.67
2019-04-03T21:58:50.197Z,11.95
2019-04-03T22:01:25.475Z,10.97
2019-04-03T22:03:58.075Z,12.60
2019-04-03T22:06:30.674Z,10.90
2019-04-03T22:09:11.411Z,11.50
2019-04-03T22:11:44.070Z,11.47
2019-04-03T22:14:16.784Z,13.13
2019-04-03T22:16:50.796Z,11.83
2019-04-03T22:19:27.435Z,13.40
2019-04-03T22:22:01.045Z,15.10
2019-04-03T22:24:37.753Z,12.43
2019-04-03T22:27:12.122Z,12.67
2019-04-03T22:29:46.446Z,11.87
2019-04-03T22:32:20.700Z,12.57
2019-04-03T22:34:53.383Z,12.17
2019-04-03T22:37:27.750Z,12.97
2019-04-03T22:40:04.440Z,13.10
2019-04-03T22:42:37.005Z,12.43
2019-04-03T22:45:09.770Z,14.07
2019-04-03T22:47:47.416Z,12.07
2019-04-03T22:50:24.843Z,12.93
2019-04-03T22:52:58.281Z,11.63
2019-04-03T22:55:32.539Z,12.90
2019-04-03T22:58:05.954Z,12.47
2019-04-03T23:00:41.242Z,12.80
2019-04-03T23:03:14.144Z,13.97
2019-04-03T23:05:48.513Z,11.67
2019-04-03T23:08:22.781Z,11.98
2019-04-03T23:11:00.695Z,12.73
2019-04-03T23:13:35.753Z,12.60
2019-04-03T23:16:09.606Z,13.57
2019-04-03T23:18:46.853Z,10.47
2019-04-03T23:21:23.525Z,11.83
2019-04-03T23:23:58.444Z,11.47
2019-04-03T23:26:32.827Z,12.07
2019-04-03T23:29:06.520Z,13.17
2019-04-03T23:31:39.146Z,11.27
2019-04-03T23:34:13.302Z,12.80
2019-04-03T23:36:47.670Z,11.60
2019-04-03T23:39:20.966Z,11.93
2019-04-03T23:41:57.479Z,14.70
2019-04-03T23:44:30.065Z,12.83
2019-04-03T23:47:02.739Z,12.73
2019-04-03T23:49:36.790Z,13.50
2019-04-03T23:52:09.456Z,14.70
2019-04-03T23:54:42.036Z,12.63
2019-04-03T23:57:17.080Z,13.77
2019-04-03T23:59:49.616Z,14.00
